sensor_id;sensor_type;location;lat;lon;timestamp;temperature;humidity
49379;DHT22;35254;47.990;-1.608;2022-10-16T00:01:09;21.50;65.00
49379;DHT22;35254;47.990;-1.608;2022-10-16T00:03:36;21.50;64.80
49379;DHT22;35254;47.990;-1.608;2022-10-16T00:06:02;21.50;64.70
49379;DHT22;35254;47.990;-1.608;2022-10-16T00:08:29;21.50;65.00
49379;DHT22;35254;47.990;-1.608;2022-10-16T00:11:06;21.50;65.30
49379;DHT22;35254;47.990;-1.608;2022-10-16T00:13:33;21.50;65.40
49379;DHT22;35254;47.990;-1.608;2022-10-16T00:16:00;21.50;65.60
49379;DHT22;35254;47.990;-1.608;2022-10-16T00:18:27;21.50;65.80
49379;DHT22;35254;47.990;-1.608;2022-10-16T00:20:52;21.50;65.90
49379;DHT22;35254;47.990;-1.608;2022-10-16T00:23:18;21.50;65.80
49379;DHT22;35254;47.990;-1.608;2022-10-16T00:25:44;21.50;65.90
49379;DHT22;35254;47.990;-1.608;2022-10-16T00:28:10;21.50;65.70
49379;DHT22;35254;47.990;-1.608;2022-10-16T00:30:39;21.60;65.40
49379;DHT22;35254;47.990;-1.608;2022-10-16T00:33:05;21.50;65.90
49379;DHT22;35254;47.990;-1.608;2022-10-16T00:35:31;21.50;64.80
49379;DHT22;35254;47.990;-1.608;2022-10-16T00:37:56;21.60;65.50
49379;DHT22;35254;47.990;-1.608;2022-10-16T00:40:22;21.60;65.80
49379;DHT22;35254;47.990;-1.608;2022-10-16T00:42:47;21.50;65.60
49379;DHT22;35254;47.990;-1.608;2022-10-16T00:45:13;21.50;65.50
49379;DHT22;35254;47.990;-1.608;2022-10-16T00:47:42;21.50;65.60
49379;DHT22;35254;47.990;-1.608;2022-10-16T00:50:18;21.50;65.80
49379;DHT22;35254;47.990;-1.608;2022-10-16T00:52:47;21.50;66.10
49379;DHT22;35254;47.990;-1.608;2022-10-16T00:55:14;21.40;66.30
49379;DHT22;35254;47.990;-1.608;2022-10-16T00:57:40;21.50;65.80
49379;DHT22;35254;47.990;-1.608;2022-10-16T01:00:09;21.50;65.90
49379;DHT22;35254;47.990;-1.608;2022-10-16T01:02:35;21.50;66.10
49379;DHT22;35254;47.990;-1.608;2022-10-16T01:05:01;21.40;65.90
49379;DHT22;35254;47.990;-1.608;2022-10-16T01:07:39;21.50;66.10
49379;DHT22;35254;47.990;-1.608;2022-10-16T01:10:27;21.40;66.30
49379;DHT22;35254;47.990;-1.608;2022-10-16T01:29:05;21.40;65.50
49379;DHT22;35254;47.990;-1.608;2022-10-16T01:31:34;21.40;65.80
49379;DHT22;35254;47.990;-1.608;2022-10-16T01:34:09;21.40;65.80
49379;DHT22;35254;47.990;-1.608;2022-10-16T01:36:38;21.40;65.70
49379;DHT22;35254;47.990;-1.608;2022-10-16T01:39:05;21.30;65.70
49379;DHT22;35254;47.990;-1.608;2022-10-16T01:41:38;21.40;65.80
49379;DHT22;35254;47.990;-1.608;2022-10-16T01:44:25;21.40;65.50
49379;DHT22;35254;47.990;-1.608;2022-10-16T01:46:52;21.30;65.60
49379;DHT22;35254;47.990;-1.608;2022-10-16T01:49:21;21.40;65.50
49379;DHT22;35254;47.990;-1.608;2022-10-16T01:51:50;21.30;65.60
49379;DHT22;35254;47.990;-1.608;2022-10-16T01:54:18;21.30;65.50
49379;DHT22;35254;47.990;-1.608;2022-10-16T01:56:46;21.30;65.60
49379;DHT22;35254;47.990;-1.608;2022-10-16T01:59:16;21.30;65.60
49379;DHT22;35254;47.990;-1.608;2022-10-16T02:01:47;21.30;65.50
49379;DHT22;35254;47.990;-1.608;2022-10-16T02:06:46;21.30;65.30
49379;DHT22;35254;47.990;-1.608;2022-10-16T02:09:12;21.30;65.30
49379;DHT22;35254;47.990;-1.608;2022-10-16T02:11:38;21.40;65.30
49379;DHT22;35254;47.990;-1.608;2022-10-16T02:14:07;21.30;65.10
49379;DHT22;35254;47.990;-1.608;2022-10-16T02:16:39;21.30;65.20
49379;DHT22;35254;47.990;-1.608;2022-10-16T02:19:06;21.30;65.30
49379;DHT22;35254;47.990;-1.608;2022-10-16T02:21:43;21.30;65.00
49379;DHT22;35254;47.990;-1.608;2022-10-16T02:26:42;21.30;64.70
49379;DHT22;35254;47.990;-1.608;2022-10-16T02:29:12;21.30;64.90
49379;DHT22;35254;47.990;-1.608;2022-10-16T02:31:43;21.30;65.20
49379;DHT22;35254;47.990;-1.608;2022-10-16T02:34:09;21.30;65.00
49379;DHT22;35254;47.990;-1.608;2022-10-16T02:36:37;21.30;65.00
49379;DHT22;35254;47.990;-1.608;2022-10-16T02:39:04;21.30;64.90
49379;DHT22;35254;47.990;-1.608;2022-10-16T02:41:31;21.30;65.10
49379;DHT22;35254;47.990;-1.608;2022-10-16T02:43:57;21.30;65.20
49379;DHT22;35254;47.990;-1.608;2022-10-16T02:46:22;21.20;65.20
49379;DHT22;35254;47.990;-1.608;2022-10-16T02:48:48;21.30;65.10
49379;DHT22;35254;47.990;-1.608;2022-10-16T02:51:13;21.30;65.00
49379;DHT22;35254;47.990;-1.608;2022-10-16T02:53:39;21.30;64.90
49379;DHT22;35254;47.990;-1.608;2022-10-16T02:56:05;21.30;64.90
49379;DHT22;35254;47.990;-1.608;2022-10-16T02:58:30;21.30;64.90
49379;DHT22;35254;47.990;-1.608;2022-10-16T03:00:56;21.30;64.80
49379;DHT22;35254;47.990;-1.608;2022-10-16T03:03:21;21.30;64.70
49379;DHT22;35254;47.990;-1.608;2022-10-16T03:05:47;21.20;64.80
49379;DHT22;35254;47.990;-1.608;2022-10-16T03:08:13;21.20;64.60
49379;DHT22;35254;47.990;-1.608;2022-10-16T03:10:39;21.30;64.70
49379;DHT22;35254;47.990;-1.608;2022-10-16T03:13:04;21.20;64.70
49379;DHT22;35254;47.990;-1.608;2022-10-16T03:15:30;21.20;64.60
49379;DHT22;35254;47.990;-1.608;2022-10-16T03:17:59;21.20;64.50
49379;DHT22;35254;47.990;-1.608;2022-10-16T03:20:25;21.30;64.60
49379;DHT22;35254;47.990;-1.608;2022-10-16T03:22:51;21.30;64.70
49379;DHT22;35254;47.990;-1.608;2022-10-16T03:25:17;21.30;64.60
49379;DHT22;35254;47.990;-1.608;2022-10-16T03:27:43;21.30;64.60
49379;DHT22;35254;47.990;-1.608;2022-10-16T03:30:09;21.20;64.70
49379;DHT22;35254;47.990;-1.608;2022-10-16T03:32:35;21.20;64.60
49379;DHT22;35254;47.990;-1.608;2022-10-16T03:35:00;21.20;64.60
49379;DHT22;35254;47.990;-1.608;2022-10-16T03:37:26;21.20;64.50
49379;DHT22;35254;47.990;-1.608;2022-10-16T03:39:52;21.20;64.60
49379;DHT22;35254;47.990;-1.608;2022-10-16T03:42:17;21.20;64.60
49379;DHT22;35254;47.990;-1.608;2022-10-16T03:44:43;21.20;64.60
49379;DHT22;35254;47.990;-1.608;2022-10-16T03:47:08;21.20;64.60
49379;DHT22;35254;47.990;-1.608;2022-10-16T03:49:34;21.20;64.50
49379;DHT22;35254;47.990;-1.608;2022-10-16T03:52:00;21.20;64.60
49379;DHT22;35254;47.990;-1.608;2022-10-16T03:54:25;21.20;64.50
49379;DHT22;35254;47.990;-1.608;2022-10-16T03:56:51;21.20;64.70
49379;DHT22;35254;47.990;-1.608;2022-10-16T03:59:17;21.20;64.80
49379;DHT22;35254;47.990;-1.608;2022-10-16T04:01:42;21.20;64.60
49379;DHT22;35254;47.990;-1.608;2022-10-16T04:04:08;21.20;64.70
49379;DHT22;35254;47.990;-1.608;2022-10-16T04:06:34;21.20;64.50
49379;DHT22;35254;47.990;-1.608;2022-10-16T04:08:59;21.20;64.60
49379;DHT22;35254;47.990;-1.608;2022-10-16T04:11:25;21.20;64.70
49379;DHT22;35254;47.990;-1.608;2022-10-16T04:13:51;21.20;64.70
49379;DHT22;35254;47.990;-1.608;2022-10-16T04:16:16;21.20;64.60
49379;DHT22;35254;47.990;-1.608;2022-10-16T04:18:42;21.20;64.50
49379;DHT22;35254;47.990;-1.608;2022-10-16T04:21:07;21.20;64.40
49379;DHT22;35254;47.990;-1.608;2022-10-16T04:23:33;21.20;64.50
49379;DHT22;35254;47.990;-1.608;2022-10-16T04:25:59;21.20;64.40
49379;DHT22;35254;47.990;-1.608;2022-10-16T04:28:25;21.20;64.50
49379;DHT22;35254;47.990;-1.608;2022-10-16T04:30:51;21.20;64.80
49379;DHT22;35254;47.990;-1.608;2022-10-16T04:33:17;21.20;64.70
49379;DHT22;35254;47.990;-1.608;2022-10-16T04:35:42;21.20;64.60
49379;DHT22;35254;47.990;-1.608;2022-10-16T04:38:08;21.20;64.70
49379;DHT22;35254;47.990;-1.608;2022-10-16T04:40:33;21.20;64.80
49379;DHT22;35254;47.990;-1.608;2022-10-16T04:43:02;21.20;64.70
49379;DHT22;35254;47.990;-1.608;2022-10-16T04:45:28;21.20;64.60
49379;DHT22;35254;47.990;-1.608;2022-10-16T04:47:57;21.20;64.60
49379;DHT22;35254;47.990;-1.608;2022-10-16T04:50:23;21.20;64.70
49379;DHT22;35254;47.990;-1.608;2022-10-16T04:52:48;21.20;64.60
49379;DHT22;35254;47.990;-1.608;2022-10-16T04:55:14;21.20;64.70
49379;DHT22;35254;47.990;-1.608;2022-10-16T04:57:40;21.20;64.70
49379;DHT22;35254;47.990;-1.608;2022-10-16T05:00:06;21.20;64.70
49379;DHT22;35254;47.990;-1.608;2022-10-16T05:02:33;21.10;64.90
49379;DHT22;35254;47.990;-1.608;2022-10-16T05:04:58;21.10;64.80
49379;DHT22;35254;47.990;-1.608;2022-10-16T05:07:24;21.10;64.60
49379;DHT22;35254;47.990;-1.608;2022-10-16T05:09:50;21.10;64.60
49379;DHT22;35254;47.990;-1.608;2022-10-16T05:12:16;21.10;64.60
49379;DHT22;35254;47.990;-1.608;2022-10-16T05:14:41;21.10;64.70
49379;DHT22;35254;47.990;-1.608;2022-10-16T05:17:07;21.10;64.90
49379;DHT22;35254;47.990;-1.608;2022-10-16T05:19:33;21.10;64.90
49379;DHT22;35254;47.990;-1.608;2022-10-16T05:21:58;21.10;64.90
49379;DHT22;35254;47.990;-1.608;2022-10-16T05:24:24;21.10;64.70
49379;DHT22;35254;47.990;-1.608;2022-10-16T05:26:50;21.10;64.70
49379;DHT22;35254;47.990;-1.608;2022-10-16T05:29:16;21.20;64.70
49379;DHT22;35254;47.990;-1.608;2022-10-16T05:31:42;21.10;64.80
49379;DHT22;35254;47.990;-1.608;2022-10-16T05:34:08;21.10;64.80
49379;DHT22;35254;47.990;-1.608;2022-10-16T05:36:33;21.10;64.80
49379;DHT22;35254;47.990;-1.608;2022-10-16T05:38:59;21.10;64.90
49379;DHT22;35254;47.990;-1.608;2022-10-16T05:41:24;21.10;64.90
49379;DHT22;35254;47.990;-1.608;2022-10-16T05:43:52;21.10;65.10
49379;DHT22;35254;47.990;-1.608;2022-10-16T05:46:18;21.10;64.90
49379;DHT22;35254;47.990;-1.608;2022-10-16T05:48:43;21.10;65.10
49379;DHT22;35254;47.990;-1.608;2022-10-16T05:51:11;21.10;65.00
49379;DHT22;35254;47.990;-1.608;2022-10-16T05:53:38;21.10;65.20
49379;DHT22;35254;47.990;-1.608;2022-10-16T05:56:05;21.10;65.00
49379;DHT22;35254;47.990;-1.608;2022-10-16T05:58:36;21.10;65.20
49379;DHT22;35254;47.990;-1.608;2022-10-16T06:01:21;21.10;65.00
49379;DHT22;35254;47.990;-1.608;2022-10-16T06:03:52;21.20;65.00
49379;DHT22;35254;47.990;-1.608;2022-10-16T06:06:23;21.10;64.80
49379;DHT22;35254;47.990;-1.608;2022-10-16T06:08:50;21.20;64.90
49379;DHT22;35254;47.990;-1.608;2022-10-16T06:11:26;21.10;64.80
49379;DHT22;35254;47.990;-1.608;2022-10-16T06:13:53;21.20;65.00
49379;DHT22;35254;47.990;-1.608;2022-10-16T06:16:20;21.10;64.90
49379;DHT22;35254;47.990;-1.608;2022-10-16T06:18:46;21.10;64.80
49379;DHT22;35254;47.990;-1.608;2022-10-16T06:21:16;21.10;65.10
49379;DHT22;35254;47.990;-1.608;2022-10-16T06:23:41;21.10;65.00
49379;DHT22;35254;47.990;-1.608;2022-10-16T06:26:09;21.10;64.90
49379;DHT22;35254;47.990;-1.608;2022-10-16T06:28:35;21.10;65.00
49379;DHT22;35254;47.990;-1.608;2022-10-16T06:31:02;21.10;65.20
49379;DHT22;35254;47.990;-1.608;2022-10-16T06:33:28;21.10;65.00
49379;DHT22;35254;47.990;-1.608;2022-10-16T06:35:54;21.10;64.90
49379;DHT22;35254;47.990;-1.608;2022-10-16T06:38:24;21.10;64.90
49379;DHT22;35254;47.990;-1.608;2022-10-16T06:40:50;21.10;65.10
49379;DHT22;35254;47.990;-1.608;2022-10-16T06:43:16;21.10;65.10
49379;DHT22;35254;47.990;-1.608;2022-10-16T06:45:41;21.10;64.90
49379;DHT22;35254;47.990;-1.608;2022-10-16T06:48:07;21.10;64.80
49379;DHT22;35254;47.990;-1.608;2022-10-16T06:50:32;21.10;64.90
49379;DHT22;35254;47.990;-1.608;2022-10-16T06:52:58;21.10;65.00
49379;DHT22;35254;47.990;-1.608;2022-10-16T06:55:24;21.10;64.50
49379;DHT22;35254;47.990;-1.608;2022-10-16T06:57:49;21.20;64.20
49379;DHT22;35254;47.990;-1.608;2022-10-16T07:00:15;21.20;63.90
49379;DHT22;35254;47.990;-1.608;2022-10-16T07:02:41;21.10;63.80
49379;DHT22;35254;47.990;-1.608;2022-10-16T07:05:06;21.10;63.90
49379;DHT22;35254;47.990;-1.608;2022-10-16T07:07:32;21.10;63.90
49379;DHT22;35254;47.990;-1.608;2022-10-16T07:09:58;21.20;63.70
49379;DHT22;35254;47.990;-1.608;2022-10-16T07:12:23;21.30;63.60
49379;DHT22;35254;47.990;-1.608;2022-10-16T07:14:49;21.30;63.60
49379;DHT22;35254;47.990;-1.608;2022-10-16T07:17:17;21.30;63.70
49379;DHT22;35254;47.990;-1.608;2022-10-16T07:19:43;21.40;63.70
49379;DHT22;35254;47.990;-1.608;2022-10-16T07:22:08;21.40;63.50
49379;DHT22;35254;47.990;-1.608;2022-10-16T07:24:34;21.50;63.70
49379;DHT22;35254;47.990;-1.608;2022-10-16T07:27:00;21.50;63.50
49379;DHT22;35254;47.990;-1.608;2022-10-16T07:29:26;21.50;63.50
49379;DHT22;35254;47.990;-1.608;2022-10-16T07:31:51;21.50;63.70
49379;DHT22;35254;47.990;-1.608;2022-10-16T07:34:18;21.50;63.60
49379;DHT22;35254;47.990;-1.608;2022-10-16T07:36:47;21.60;63.70
49379;DHT22;35254;47.990;-1.608;2022-10-16T07:39:13;21.60;63.60
49379;DHT22;35254;47.990;-1.608;2022-10-16T07:41:39;21.60;63.60
49379;DHT22;35254;47.990;-1.608;2022-10-16T07:44:04;21.60;63.70
49379;DHT22;35254;47.990;-1.608;2022-10-16T07:46:31;21.60;63.80
49379;DHT22;35254;47.990;-1.608;2022-10-16T07:48:59;21.70;64.50
49379;DHT22;35254;47.990;-1.608;2022-10-16T07:51:25;21.70;64.80
49379;DHT22;35254;47.990;-1.608;2022-10-16T07:53:52;21.70;64.80
49379;DHT22;35254;47.990;-1.608;2022-10-16T07:56:19;21.70;64.60
49379;DHT22;35254;47.990;-1.608;2022-10-16T07:58:45;21.70;64.70
49379;DHT22;35254;47.990;-1.608;2022-10-16T08:01:14;21.70;65.30
49379;DHT22;35254;47.990;-1.608;2022-10-16T08:03:46;21.70;65.00
49379;DHT22;35254;47.990;-1.608;2022-10-16T08:06:12;21.70;65.00
49379;DHT22;35254;47.990;-1.608;2022-10-16T08:08:38;21.70;64.80
49379;DHT22;35254;47.990;-1.608;2022-10-16T08:11:03;21.70;64.80
49379;DHT22;35254;47.990;-1.608;2022-10-16T08:13:30;21.60;64.70
49379;DHT22;35254;47.990;-1.608;2022-10-16T08:15:55;21.70;64.50
49379;DHT22;35254;47.990;-1.608;2022-10-16T08:18:22;21.60;64.60
49379;DHT22;35254;47.990;-1.608;2022-10-16T08:20:47;21.70;64.40
49379;DHT22;35254;47.990;-1.608;2022-10-16T08:23:13;21.70;64.70
49379;DHT22;35254;47.990;-1.608;2022-10-16T08:25:39;21.70;65.30
49379;DHT22;35254;47.990;-1.608;2022-10-16T08:28:07;21.70;65.50
49379;DHT22;35254;47.990;-1.608;2022-10-16T08:30:33;21.70;65.10
49379;DHT22;35254;47.990;-1.608;2022-10-16T08:32:59;21.70;65.00
49379;DHT22;35254;47.990;-1.608;2022-10-16T08:35:24;21.80;64.80
49379;DHT22;35254;47.990;-1.608;2022-10-16T08:37:50;21.90;64.30
49379;DHT22;35254;47.990;-1.608;2022-10-16T08:40:29;22.00;64.00
49379;DHT22;35254;47.990;-1.608;2022-10-16T08:43:17;22.20;64.00
49379;DHT22;35254;47.990;-1.608;2022-10-16T08:50:58;22.30;63.50
49379;DHT22;35254;47.990;-1.608;2022-10-16T08:53:38;22.20;63.90
49379;DHT22;35254;47.990;-1.608;2022-10-16T08:56:06;22.20;64.20
49379;DHT22;35254;47.990;-1.608;2022-10-16T08:58:31;22.10;64.60
49379;DHT22;35254;47.990;-1.608;2022-10-16T09:01:01;22.10;64.80
49379;DHT22;35254;47.990;-1.608;2022-10-16T09:03:52;22.20;64.80
49379;DHT22;35254;47.990;-1.608;2022-10-16T09:12:21;22.20;64.80
49379;DHT22;35254;47.990;-1.608;2022-10-16T09:25:32;22.20;66.20
49379;DHT22;35254;47.990;-1.608;2022-10-16T09:27:58;22.20;65.60
49379;DHT22;35254;47.990;-1.608;2022-10-16T09:30:27;22.20;65.80
49379;DHT22;35254;47.990;-1.608;2022-10-16T09:32:54;22.20;66.00
49379;DHT22;35254;47.990;-1.608;2022-10-16T09:35:48;22.20;65.60
49379;DHT22;35254;47.990;-1.608;2022-10-16T09:38:29;22.20;65.30
49379;DHT22;35254;47.990;-1.608;2022-10-16T09:40:58;22.10;65.60
49379;DHT22;35254;47.990;-1.608;2022-10-16T09:43:28;22.20;65.60
49379;DHT22;35254;47.990;-1.608;2022-10-16T09:45:58;22.00;65.80
49379;DHT22;35254;47.990;-1.608;2022-10-16T09:48:39;22.00;65.70
49379;DHT22;35254;47.990;-1.608;2022-10-16T09:51:23;22.00;65.90
49379;DHT22;35254;47.990;-1.608;2022-10-16T09:54:15;22.00;65.90
49379;DHT22;35254;47.990;-1.608;2022-10-16T09:56:39;22.00;65.20
49379;DHT22;35254;47.990;-1.608;2022-10-16T09:59:15;22.00;65.20
49379;DHT22;35254;47.990;-1.608;2022-10-16T10:01:44;22.00;65.40
49379;DHT22;35254;47.990;-1.608;2022-10-16T10:04:11;22.00;65.20
49379;DHT22;35254;47.990;-1.608;2022-10-16T10:06:50;22.10;65.30
49379;DHT22;35254;47.990;-1.608;2022-10-16T10:09:43;22.10;65.70
49379;DHT22;35254;47.990;-1.608;2022-10-16T10:12:24;22.00;65.30
49379;DHT22;35254;47.990;-1.608;2022-10-16T10:14:52;22.10;66.10
49379;DHT22;35254;47.990;-1.608;2022-10-16T10:17:26;22.20;66.60
49379;DHT22;35254;47.990;-1.608;2022-10-16T10:25:12;22.20;70.70
49379;DHT22;35254;47.990;-1.608;2022-10-16T10:35:48;22.20;67.50
49379;DHT22;35254;47.990;-1.608;2022-10-16T10:47:02;22.30;66.60
49379;DHT22;35254;47.990;-1.608;2022-10-16T11:00:42;22.40;66.20
49379;DHT22;35254;47.990;-1.608;2022-10-16T11:06:07;22.50;68.90
49379;DHT22;35254;47.990;-1.608;2022-10-16T11:08:40;22.50;69.40
49379;DHT22;35254;47.990;-1.608;2022-10-16T11:13:36;22.40;68.60
49379;DHT22;35254;47.990;-1.608;2022-10-16T11:27:17;22.50;69.00
49379;DHT22;35254;47.990;-1.608;2022-10-16T11:30:16;22.60;69.30
49379;DHT22;35254;47.990;-1.608;2022-10-16T11:33:02;22.60;68.60
49379;DHT22;35254;47.990;-1.608;2022-10-16T11:35:43;22.60;68.40
49379;DHT22;35254;47.990;-1.608;2022-10-16T11:38:41;22.60;68.20
49379;DHT22;35254;47.990;-1.608;2022-10-16T11:41:23;22.60;67.90
49379;DHT22;35254;47.990;-1.608;2022-10-16T11:44:06;22.60;68.20
49379;DHT22;35254;47.990;-1.608;2022-10-16T11:46:36;22.60;68.10
49379;DHT22;35254;47.990;-1.608;2022-10-16T11:49:31;22.60;67.90
49379;DHT22;35254;47.990;-1.608;2022-10-16T11:52:10;22.70;67.70
49379;DHT22;35254;47.990;-1.608;2022-10-16T11:57:31;22.60;67.20
49379;DHT22;35254;47.990;-1.608;2022-10-16T12:00:52;22.60;67.30
49379;DHT22;35254;47.990;-1.608;2022-10-16T12:03:35;22.60;67.30
49379;DHT22;35254;47.990;-1.608;2022-10-16T12:08:55;22.70;67.50
49379;DHT22;35254;47.990;-1.608;2022-10-16T12:11:30;22.60;67.20
49379;DHT22;35254;47.990;-1.608;2022-10-16T12:16:50;22.70;67.10
49379;DHT22;35254;47.990;-1.608;2022-10-16T12:19:17;22.70;67.20
49379;DHT22;35254;47.990;-1.608;2022-10-16T12:21:43;22.70;67.20
49379;DHT22;35254;47.990;-1.608;2022-10-16T12:24:50;22.70;67.20
49379;DHT22;35254;47.990;-1.608;2022-10-16T12:27:29;22.70;67.00
49379;DHT22;35254;47.990;-1.608;2022-10-16T12:30:00;22.70;67.00
49379;DHT22;35254;47.990;-1.608;2022-10-16T12:32:32;22.70;67.00
49379;DHT22;35254;47.990;-1.608;2022-10-16T12:35:00;22.70;67.50
49379;DHT22;35254;47.990;-1.608;2022-10-16T12:37:31;22.80;67.60
49379;DHT22;35254;47.990;-1.608;2022-10-16T12:39:57;22.80;68.50
49379;DHT22;35254;47.990;-1.608;2022-10-16T12:42:34;22.80;68.40
49379;DHT22;35254;47.990;-1.608;2022-10-16T12:45:00;22.80;68.20
49379;DHT22;35254;47.990;-1.608;2022-10-16T12:49:58;22.90;69.60
49379;DHT22;35254;47.990;-1.608;2022-10-16T12:52:38;22.90;68.70
49379;DHT22;35254;47.990;-1.608;2022-10-16T12:55:05;23.00;68.30
49379;DHT22;35254;47.990;-1.608;2022-10-16T13:00:55;23.10;67.80
49379;DHT22;35254;47.990;-1.608;2022-10-16T13:23:11;23.20;68.10
49379;DHT22;35254;47.990;-1.608;2022-10-16T13:25:17;23.20;67.90
49379;DHT22;35254;47.990;-1.608;2022-10-16T13:30:29;23.20;67.80
49379;DHT22;35254;47.990;-1.608;2022-10-16T13:33:47;23.20;67.60
49379;DHT22;35254;47.990;-1.608;2022-10-16T13:35:49;23.10;67.30
49379;DHT22;35254;47.990;-1.608;2022-10-16T13:38:24;23.10;66.60
49379;DHT22;35254;47.990;-1.608;2022-10-16T13:40:58;23.10;66.20
49379;DHT22;35254;47.990;-1.608;2022-10-16T13:43:35;23.10;65.70
49379;DHT22;35254;47.990;-1.608;2022-10-16T13:46:04;23.10;65.90
49379;DHT22;35254;47.990;-1.608;2022-10-16T13:48:31;23.10;65.50
49379;DHT22;35254;47.990;-1.608;2022-10-16T13:51:03;23.10;65.50
49379;DHT22;35254;47.990;-1.608;2022-10-16T13:53:31;23.10;65.50
49379;DHT22;35254;47.990;-1.608;2022-10-16T13:55:58;23.10;65.30
49379;DHT22;35254;47.990;-1.608;2022-10-16T13:58:25;23.10;65.20
49379;DHT22;35254;47.990;-1.608;2022-10-16T14:01:05;23.10;65.20
49379;DHT22;35254;47.990;-1.608;2022-10-16T14:03:38;23.10;65.30
49379;DHT22;35254;47.990;-1.608;2022-10-16T14:06:12;23.20;65.20
49379;DHT22;35254;47.990;-1.608;2022-10-16T14:08:43;23.10;65.20
49379;DHT22;35254;47.990;-1.608;2022-10-16T14:11:09;23.10;65.20
49379;DHT22;35254;47.990;-1.608;2022-10-16T14:13:39;23.10;65.20
49379;DHT22;35254;47.990;-1.608;2022-10-16T14:16:10;23.10;65.40
49379;DHT22;35254;47.990;-1.608;2022-10-16T14:18:40;23.20;65.40
49379;DHT22;35254;47.990;-1.608;2022-10-16T14:21:10;23.20;65.50
49379;DHT22;35254;47.990;-1.608;2022-10-16T14:23:38;23.20;65.60
49379;DHT22;35254;47.990;-1.608;2022-10-16T14:28:39;23.20;65.40
49379;DHT22;35254;47.990;-1.608;2022-10-16T14:31:26;23.20;65.40
49379;DHT22;35254;47.990;-1.608;2022-10-16T14:33:51;23.20;65.50
49379;DHT22;35254;47.990;-1.608;2022-10-16T14:36:17;23.20;65.40
49379;DHT22;35254;47.990;-1.608;2022-10-16T14:39:04;23.20;65.60
49379;DHT22;35254;47.990;-1.608;2022-10-16T14:41:32;23.10;65.60
49379;DHT22;35254;47.990;-1.608;2022-10-16T14:44:02;23.20;65.80
49379;DHT22;35254;47.990;-1.608;2022-10-16T14:46:30;23.20;65.70
49379;DHT22;35254;47.990;-1.608;2022-10-16T14:49:05;23.20;65.60
49379;DHT22;35254;47.990;-1.608;2022-10-16T14:51:40;23.20;65.70
49379;DHT22;35254;47.990;-1.608;2022-10-16T14:54:11;23.20;65.80
49379;DHT22;35254;47.990;-1.608;2022-10-16T14:56:56;23.20;65.90
49379;DHT22;35254;47.990;-1.608;2022-10-16T14:59:28;23.20;65.70
49379;DHT22;35254;47.990;-1.608;2022-10-16T15:01:55;23.20;65.70
49379;DHT22;35254;47.990;-1.608;2022-10-16T15:04:21;23.20;65.60
49379;DHT22;35254;47.990;-1.608;2022-10-16T15:06:46;23.20;65.60
49379;DHT22;35254;47.990;-1.608;2022-10-16T15:09:12;23.20;65.60
49379;DHT22;35254;47.990;-1.608;2022-10-16T15:11:38;23.20;65.50
49379;DHT22;35254;47.990;-1.608;2022-10-16T15:14:05;23.20;65.50
49379;DHT22;35254;47.990;-1.608;2022-10-16T15:16:32;23.20;65.60
49379;DHT22;35254;47.990;-1.608;2022-10-16T15:18:58;23.20;65.60
49379;DHT22;35254;47.990;-1.608;2022-10-16T15:21:26;23.20;65.80
49379;DHT22;35254;47.990;-1.608;2022-10-16T15:23:52;23.20;65.90
49379;DHT22;35254;47.990;-1.608;2022-10-16T15:26:18;23.20;66.00
49379;DHT22;35254;47.990;-1.608;2022-10-16T15:28:44;23.20;66.20
49379;DHT22;35254;47.990;-1.608;2022-10-16T15:31:10;23.20;66.40
49379;DHT22;35254;47.990;-1.608;2022-10-16T15:33:35;23.20;66.30
49379;DHT22;35254;47.990;-1.608;2022-10-16T15:36:02;23.20;66.60
49379;DHT22;35254;47.990;-1.608;2022-10-16T15:38:28;23.30;66.50
49379;DHT22;35254;47.990;-1.608;2022-10-16T15:40:55;23.30;66.90
49379;DHT22;35254;47.990;-1.608;2022-10-16T15:43:22;23.20;66.50
49379;DHT22;35254;47.990;-1.608;2022-10-16T15:48:26;23.20;66.30
49379;DHT22;35254;47.990;-1.608;2022-10-16T15:50:51;23.30;66.80
49379;DHT22;35254;47.990;-1.608;2022-10-16T15:53:17;23.30;67.20
49379;DHT22;35254;47.990;-1.608;2022-10-16T15:55:42;23.20;66.80
49379;DHT22;35254;47.990;-1.608;2022-10-16T15:58:08;23.30;67.10
49379;DHT22;35254;47.990;-1.608;2022-10-16T16:00:34;23.30;67.00
49379;DHT22;35254;47.990;-1.608;2022-10-16T16:02:59;23.30;66.80
49379;DHT22;35254;47.990;-1.608;2022-10-16T16:05:25;23.30;67.30
49379;DHT22;35254;47.990;-1.608;2022-10-16T16:07:51;23.20;67.20
49379;DHT22;35254;47.990;-1.608;2022-10-16T16:10:17;23.20;67.30
49379;DHT22;35254;47.990;-1.608;2022-10-16T16:12:43;23.20;67.60
49379;DHT22;35254;47.990;-1.608;2022-10-16T16:15:09;23.20;67.10
49379;DHT22;35254;47.990;-1.608;2022-10-16T16:17:35;23.20;67.90
49379;DHT22;35254;47.990;-1.608;2022-10-16T16:20:02;23.20;68.50
49379;DHT22;35254;47.990;-1.608;2022-10-16T16:22:29;23.20;69.20
49379;DHT22;35254;47.990;-1.608;2022-10-16T16:24:54;23.10;69.20
49379;DHT22;35254;47.990;-1.608;2022-10-16T16:27:20;23.10;69.10
49379;DHT22;35254;47.990;-1.608;2022-10-16T16:29:46;23.10;69.30
49379;DHT22;35254;47.990;-1.608;2022-10-16T16:32:13;23.10;69.10
49379;DHT22;35254;47.990;-1.608;2022-10-16T16:34:38;23.10;69.50
49379;DHT22;35254;47.990;-1.608;2022-10-16T16:37:04;23.00;69.10
49379;DHT22;35254;47.990;-1.608;2022-10-16T16:39:30;23.00;69.10
49379;DHT22;35254;47.990;-1.608;2022-10-16T16:41:57;23.00;68.90
49379;DHT22;35254;47.990;-1.608;2022-10-16T16:44:24;22.90;68.80
49379;DHT22;35254;47.990;-1.608;2022-10-16T16:46:50;22.90;68.90
49379;DHT22;35254;47.990;-1.608;2022-10-16T16:49:15;22.90;68.90
49379;DHT22;35254;47.990;-1.608;2022-10-16T16:51:41;22.90;68.70
49379;DHT22;35254;47.990;-1.608;2022-10-16T16:54:07;22.80;68.60
49379;DHT22;35254;47.990;-1.608;2022-10-16T16:56:34;22.80;68.60
49379;DHT22;35254;47.990;-1.608;2022-10-16T16:59:00;22.80;68.90
49379;DHT22;35254;47.990;-1.608;2022-10-16T17:01:27;22.80;67.30
49379;DHT22;35254;47.990;-1.608;2022-10-16T17:03:55;22.70;67.10
49379;DHT22;35254;47.990;-1.608;2022-10-16T17:06:26;22.60;67.80
49379;DHT22;35254;47.990;-1.608;2022-10-16T17:08:53;22.70;68.50
49379;DHT22;35254;47.990;-1.608;2022-10-16T17:11:21;22.60;67.30
49379;DHT22;35254;47.990;-1.608;2022-10-16T17:13:47;22.50;67.80
49379;DHT22;35254;47.990;-1.608;2022-10-16T17:16:13;22.60;68.20
49379;DHT22;35254;47.990;-1.608;2022-10-16T17:18:39;22.60;68.80
49379;DHT22;35254;47.990;-1.608;2022-10-16T17:21:07;22.70;68.40
49379;DHT22;35254;47.990;-1.608;2022-10-16T17:23:34;22.70;68.20
49379;DHT22;35254;47.990;-1.608;2022-10-16T17:26:05;22.70;68.50
49379;DHT22;35254;47.990;-1.608;2022-10-16T17:28:32;22.70;68.60
49379;DHT22;35254;47.990;-1.608;2022-10-16T17:31:27;22.80;69.60
49379;DHT22;35254;47.990;-1.608;2022-10-16T17:33:52;22.70;69.50
49379;DHT22;35254;47.990;-1.608;2022-10-16T17:36:18;22.70;69.20
49379;DHT22;35254;47.990;-1.608;2022-10-16T17:38:44;22.70;69.20
49379;DHT22;35254;47.990;-1.608;2022-10-16T17:41:22;22.70;69.20